createdAt,value
2018-09-15T00:01:54.224Z,19.50
2018-09-15T00:04:22.553Z,21.37
2018-09-15T00:06:50.871Z,22.03
2018-09-15T00:09:19.172Z,21.50
2018-09-15T00:11:47.465Z,22.77
2018-09-15T00:14:15.767Z,23.67
2018-09-15T00:16:44.077Z,23.30
2018-09-15T00:19:12.432Z,22.90
2018-09-15T00:21:40.753Z,25.73
2018-09-15T00:24:09.077Z,23.83
2018-09-15T00:26:37.361Z,22.03
2018-09-15T00:29:05.686Z,20.80
2018-09-15T00:31:34.014Z,22.57
2018-09-15T00:34:02.344Z,21.47
2018-09-15T00:36:30.635Z,23.67
2018-09-15T00:38:58.972Z,21.97
2018-09-15T00:41:27.388Z,24.33
2018-09-15T00:43:55.717Z,23.27
2018-09-15T00:46:24.049Z,23.83
2018-09-15T00:48:52.463Z,21.47
2018-09-15T00:51:20.800Z,25.37
2018-09-15T00:53:49.124Z,25.03
2018-09-15T00:56:17.410Z,21.17
2018-09-15T00:58:45.797Z,22.43
2018-09-15T01:01:14.117Z,21.70
2018-09-15T01:03:42.437Z,24.13
2018-09-15T01:06:10.784Z,24.23
2018-09-15T01:08:39.148Z,23.83
2018-09-15T01:11:07.470Z,24.47
2018-09-15T01:13:35.778Z,25.90
2018-09-15T01:16:04.117Z,24.87
2018-09-15T01:18:32.488Z,25.07
2018-09-15T01:21:01.011Z,24.13
2018-09-15T01:23:29.343Z,21.83
2018-09-15T01:25:57.715Z,20.30
2018-09-15T01:28:26.006Z,23.53
2018-09-15T01:30:54.478Z,24.80
2018-09-15T01:33:22.880Z,22.73
2018-09-15T01:35:51.208Z,24.53
2018-09-15T01:38:19.543Z,24.90
2018-09-15T01:40:50.744Z,25.33
2018-09-15T01:43:19.052Z,27.67
2018-09-15T01:45:47.365Z,23.57
2018-09-15T01:48:15.684Z,26.60
2018-09-15T01:50:44.013Z,25.70
2018-09-15T01:53:12.368Z,24.47
2018-09-15T01:55:40.729Z,25.60
2018-09-15T01:58:09.031Z,27.83
2018-09-15T02:00:37.377Z,25.10
2018-09-15T02:03:05.727Z,29.50
2018-09-15T02:05:34.050Z,20.90
2018-09-15T02:08:02.400Z,21.30
2018-09-15T02:10:30.755Z,22.30
2018-09-15T02:12:59.148Z,21.00
2018-09-15T02:15:27.445Z,21.77
2018-09-15T02:17:55.921Z,22.00
2018-09-15T02:20:24.255Z,25.07
2018-09-15T02:22:52.625Z,22.67
2018-09-15T02:25:20.976Z,24.00
2018-09-15T02:27:49.300Z,25.07
2018-09-15T02:30:17.654Z,25.93
2018-09-15T02:32:52.747Z,26.30
2018-09-15T02:35:21.068Z,25.63
2018-09-15T02:37:49.408Z,27.40
2018-09-15T02:40:17.750Z,29.13
2018-09-15T02:42:46.073Z,28.93
2018-09-15T02:45:14.426Z,30.87
2018-09-15T02:47:43.076Z,31.37
2018-09-15T02:50:11.395Z,27.00
2018-09-15T02:52:39.703Z,28.63
2018-09-15T02:55:08.020Z,27.63
2018-09-15T02:57:36.312Z,27.50
2018-09-15T03:00:04.730Z,29.80
2018-09-15T03:02:33.051Z,26.27
2018-09-15T03:05:01.359Z,24.73
2018-09-15T03:07:29.807Z,24.13
2018-09-15T03:09:58.144Z,24.67
2018-09-15T03:12:26.505Z,22.20
2018-09-15T03:17:57.592Z,26.37
2018-09-15T03:20:25.874Z,25.73
2018-09-15T03:22:54.176Z,29.30
2018-09-15T03:25:22.486Z,29.40
2018-09-15T03:27:50.789Z,26.53
2018-09-15T03:30:19.089Z,23.67
2018-09-15T03:32:47.364Z,25.00
2018-09-15T03:35:15.647Z,28.03
2018-09-15T03:37:43.934Z,27.53
2018-09-15T03:40:12.256Z,29.20
2018-09-15T03:42:40.574Z,27.20
2018-09-15T03:45:08.958Z,29.93
2018-09-15T03:47:37.305Z,26.73
2018-09-15T03:50:05.616Z,26.50
2018-09-15T03:52:34.045Z,27.03
2018-09-15T03:55:02.505Z,26.77
2018-09-15T03:57:30.842Z,26.13
2018-09-15T03:59:59.127Z,26.30
2018-09-15T04:02:27.409Z,27.17
2018-09-15T04:04:55.741Z,27.03
2018-09-15T04:07:24.126Z,29.97
2018-09-15T04:09:52.502Z,24.33
2018-09-15T04:12:20.915Z,28.87
2018-09-15T04:14:49.196Z,26.27
2018-09-15T04:17:17.484Z,24.70
2018-09-15T04:19:45.778Z,23.33
2018-09-15T04:22:14.120Z,26.47
2018-09-15T04:24:42.402Z,23.23
2018-09-15T04:27:10.708Z,24.53
2018-09-15T04:29:39.020Z,23.00
2018-09-15T04:32:07.319Z,22.13
2018-09-15T04:34:35.631Z,22.83
2018-09-15T04:37:03.955Z,21.27
2018-09-15T04:39:32.284Z,22.90
2018-09-15T04:42:00.561Z,21.40
2018-09-15T04:44:28.844Z,19.03
2018-09-15T04:46:57.138Z,16.70
2018-09-15T04:49:25.457Z,21.13
2018-09-15T04:51:53.735Z,18.20
2018-09-15T04:54:22.008Z,16.10
2018-09-15T04:56:50.310Z,16.13
2018-09-15T04:59:19.582Z,16.93
2018-09-15T05:01:47.900Z,18.40
2018-09-15T05:04:16.299Z,18.10
2018-09-15T05:06:44.663Z,17.20
2018-09-15T05:09:13.461Z,18.20
2018-09-15T05:11:42.256Z,21.17
2018-09-15T05:14:10.535Z,20.90
2018-09-15T05:16:38.823Z,17.77
2018-09-15T05:19:07.127Z,17.57
2018-09-15T05:21:35.417Z,17.97
2018-09-15T05:24:03.740Z,17.17
2018-09-15T05:26:32.045Z,17.13
2018-09-15T05:29:00.330Z,20.73
2018-09-15T05:31:28.626Z,16.10
2018-09-15T05:33:56.925Z,20.60
2018-09-15T05:36:25.252Z,19.43
2018-09-15T05:38:53.554Z,18.90
2018-09-15T05:41:21.818Z,18.33
2018-09-15T05:43:50.104Z,17.63
2018-09-15T05:46:18.387Z,16.30
2018-09-15T05:48:46.691Z,16.17
2018-09-15T05:51:15.016Z,17.80
2018-09-15T05:53:43.303Z,15.83
2018-09-15T05:56:11.687Z,16.00
2018-09-15T05:58:39.913Z,15.03
2018-09-15T06:01:08.541Z,18.97
2018-09-15T06:03:36.852Z,19.80
2018-09-15T06:06:05.125Z,16.30
2018-09-15T06:08:33.412Z,17.30
2018-09-15T06:11:01.816Z,18.20
2018-09-15T06:13:30.120Z,14.10
2018-09-15T06:15:58.396Z,13.33
2018-09-15T06:18:26.721Z,14.83
2018-09-15T06:20:55.033Z,15.40
2018-09-15T06:23:23.315Z,15.50
2018-09-15T06:25:51.596Z,12.87
2018-09-15T06:28:19.886Z,13.93
2018-09-15T06:30:48.198Z,14.60
2018-09-15T06:33:16.481Z,17.53
2018-09-15T06:35:44.772Z,13.77
2018-09-15T06:38:13.147Z,16.63
2018-09-15T06:40:41.412Z,17.13
2018-09-15T06:43:09.724Z,15.80
2018-09-15T06:45:38.035Z,18.10
2018-09-15T06:48:06.372Z,14.40
2018-09-15T06:50:34.630Z,18.37
2018-09-15T06:53:02.979Z,17.90
2018-09-15T06:55:31.271Z,14.97
2018-09-15T06:57:59.588Z,15.00
2018-09-15T07:00:27.880Z,14.33
2018-09-15T07:02:56.164Z,15.50
2018-09-15T07:05:24.559Z,13.83
2018-09-15T07:07:52.904Z,16.93
2018-09-15T07:10:21.267Z,17.13
2018-09-15T07:12:49.550Z,17.40
2018-09-15T07:15:17.832Z,14.43
2018-09-15T07:17:46.220Z,12.80
2018-09-15T07:20:14.584Z,11.83
2018-09-15T07:22:43.124Z,12.70
2018-09-15T07:25:11.469Z,11.00
2018-09-15T07:27:39.860Z,12.53
2018-09-15T07:30:08.215Z,13.23
2018-09-15T07:32:36.529Z,11.20
2018-09-15T07:35:05.147Z,10.37
2018-09-15T07:37:33.476Z,8.93
2018-09-15T07:40:01.839Z,10.70
2018-09-15T07:42:30.134Z,13.10
2018-09-15T07:44:58.457Z,11.60
2018-09-15T07:47:26.839Z,7.90
2018-09-15T07:49:55.169Z,9.33
2018-09-15T07:52:24.039Z,11.97
2018-09-15T07:54:52.417Z,8.13
2018-09-15T07:57:20.744Z,11.67
2018-09-15T07:59:49.016Z,8.87
2018-09-15T08:02:19.689Z,7.87
2018-09-15T08:04:48.383Z,9.53
2018-09-15T08:07:16.949Z,10.93
2018-09-15T08:09:46.489Z,8.27
2018-09-15T08:12:15.562Z,8.30
2018-09-15T08:14:43.968Z,7.00
2018-09-15T08:17:12.388Z,6.53
2018-09-15T08:19:40.722Z,9.77
2018-09-15T08:22:09.044Z,10.50
2018-09-15T08:24:37.423Z,8.97
2018-09-15T08:27:05.808Z,8.40
2018-09-15T08:29:34.098Z,7.73
2018-09-15T08:32:02.578Z,10.17
2018-09-15T08:34:30.860Z,9.47
2018-09-15T08:36:59.507Z,8.17
2018-09-15T08:39:27.803Z,5.70
2018-09-15T08:41:56.096Z,7.67
2018-09-15T08:44:24.614Z,6.03
2018-09-15T08:46:52.916Z,6.67
2018-09-15T08:49:21.216Z,6.17
2018-09-15T08:51:49.527Z,5.90
2018-09-15T08:54:17.873Z,6.03
2018-09-15T08:56:46.215Z,6.87
2018-09-15T08:59:14.492Z,4.67
2018-09-15T09:01:42.846Z,5.23
2018-09-15T09:04:11.175Z,7.33
2018-09-15T09:06:39.507Z,7.27
2018-09-15T09:09:09.611Z,4.60
2018-09-15T09:11:37.895Z,4.47
2018-09-15T09:14:06.224Z,8.03
2018-09-15T09:16:34.582Z,8.13
2018-09-15T09:19:02.940Z,5.97
2018-09-15T09:21:31.239Z,5.73
2018-09-15T09:23:59.644Z,5.53
2018-09-15T09:26:28.098Z,6.03
2018-09-15T09:28:56.314Z,5.40
2018-09-15T09:31:24.658Z,8.03
2018-09-15T09:33:52.992Z,7.37
2018-09-15T09:36:22.309Z,6.63
2018-09-15T09:38:50.620Z,7.03
2018-09-15T09:41:18.957Z,6.73
2018-09-15T09:43:47.410Z,8.23
2018-09-15T09:46:15.760Z,6.53
2018-09-15T09:48:44.113Z,6.17
2018-09-15T09:51:12.491Z,4.17
2018-09-15T09:53:40.802Z,6.13
2018-09-15T09:56:09.121Z,5.80
2018-09-15T09:58:44.084Z,8.40
2018-09-15T10:01:17.834Z,8.23
2018-09-15T10:03:46.057Z,9.37
2018-09-15T10:06:14.404Z,5.10
2018-09-15T10:08:49.080Z,6.40
2018-09-15T10:11:17.447Z,5.63
2018-09-15T10:13:48.776Z,7.67
2018-09-15T10:16:17.442Z,6.53
2018-09-15T10:18:45.823Z,4.43
2018-09-15T10:21:14.419Z,3.90
2018-09-15T10:23:42.750Z,7.07
2018-09-15T10:26:11.117Z,6.67
2018-09-15T10:28:39.543Z,8.17
2018-09-15T10:31:07.932Z,5.60
2018-09-15T10:33:36.254Z,5.77
2018-09-15T10:36:04.591Z,6.57
2018-09-15T10:38:32.878Z,4.50
2018-09-15T10:41:01.161Z,11.30
2018-09-15T10:43:29.477Z,5.93
2018-09-15T10:45:57.804Z,5.73
2018-09-15T10:48:26.072Z,7.77
2018-09-15T10:50:54.462Z,5.87
2018-09-15T10:53:22.772Z,5.73
2018-09-15T10:55:51.111Z,7.67
2018-09-15T10:58:19.481Z,6.67
2018-09-15T11:00:47.847Z,9.13
2018-09-15T11:03:16.066Z,5.87
2018-09-15T11:05:44.536Z,7.63
2018-09-15T11:08:12.814Z,6.60
2018-09-15T11:10:41.843Z,4.73
2018-09-15T11:13:10.621Z,6.53
2018-09-15T11:15:39.942Z,3.80
2018-09-15T11:18:08.261Z,5.53
2018-09-15T11:20:36.652Z,6.17
2018-09-15T11:23:05.007Z,5.03
2018-09-15T11:25:33.331Z,5.97
2018-09-15T11:28:01.666Z,5.30
2018-09-15T11:30:30.119Z,6.23
2018-09-15T11:32:58.440Z,4.73
2018-09-15T11:35:26.752Z,7.80
2018-09-15T11:37:55.110Z,6.33
2018-09-15T11:40:23.405Z,7.23
2018-09-15T11:42:51.769Z,5.43
2018-09-15T11:45:20.139Z,6.23
2018-09-15T11:47:48.468Z,4.37
2018-09-15T11:50:16.732Z,4.90
2018-09-15T11:52:45.099Z,5.43
2018-09-15T11:55:13.436Z,5.87
2018-09-15T11:57:41.917Z,5.27
2018-09-15T12:00:10.425Z,4.43
2018-09-15T12:02:38.627Z,4.80
2018-09-15T12:05:06.955Z,4.80
2018-09-15T12:07:35.246Z,4.50
2018-09-15T12:10:03.626Z,6.03
2018-09-15T12:12:31.945Z,6.20
2018-09-15T12:15:00.236Z,9.57
2018-09-15T12:17:28.510Z,4.47
2018-09-15T12:19:56.876Z,3.97
2018-09-15T12:22:25.226Z,5.03
2018-09-15T12:24:53.488Z,6.17
2018-09-15T12:27:21.801Z,4.70
2018-09-15T12:29:50.053Z,6.97
2018-09-15T12:32:18.389Z,4.53
2018-09-15T12:34:46.634Z,4.40
2018-09-15T12:37:14.936Z,7.43
2018-09-15T12:39:43.225Z,10.53
2018-09-15T12:42:11.556Z,5.70
2018-09-15T12:44:39.855Z,8.07
2018-09-15T12:47:08.164Z,5.47
2018-09-15T12:49:36.468Z,6.83
2018-09-15T12:52:04.922Z,5.27
2018-09-15T12:54:33.216Z,5.10
2018-09-15T12:57:01.569Z,6.37
2018-09-15T12:59:30.193Z,8.27
2018-09-15T13:01:58.538Z,4.77
2018-09-15T13:04:27.015Z,3.50
2018-09-15T13:06:55.553Z,3.03
2018-09-15T13:09:23.976Z,6.73
2018-09-15T13:11:52.379Z,3.50
2018-09-15T13:14:20.769Z,5.57
2018-09-15T13:16:49.107Z,7.03
2018-09-15T13:19:17.528Z,6.03
2018-09-15T13:21:46.008Z,3.80
2018-09-15T13:24:14.417Z,5.60
2018-09-15T13:26:43.334Z,5.00
2018-09-15T13:29:12.939Z,4.17
2018-09-15T13:31:41.480Z,5.30
2018-09-15T13:34:09.924Z,5.73
2018-09-15T13:36:38.286Z,4.57
2018-09-15T13:39:08.602Z,5.23
2018-09-15T13:41:37.117Z,4.63
2018-09-15T13:44:05.483Z,3.63
2018-09-15T13:46:33.811Z,5.87
2018-09-15T13:49:02.963Z,7.30
2018-09-15T13:51:31.296Z,5.83
2018-09-15T13:53:59.583Z,5.33
2018-09-15T13:56:27.894Z,5.97
2018-09-15T13:58:56.444Z,9.30
2018-09-15T14:01:24.667Z,4.23
2018-09-15T14:03:52.993Z,7.13
2018-09-15T14:06:21.439Z,3.67
2018-09-15T14:08:49.812Z,7.17
2018-09-15T14:11:18.195Z,8.30
2018-09-15T14:13:46.515Z,9.60
2018-09-15T14:16:14.939Z,14.70
2018-09-15T14:18:43.240Z,13.67
2018-09-15T14:21:11.601Z,6.73
2018-09-15T14:23:39.932Z,17.57
2018-09-15T14:26:08.232Z,11.93
2018-09-15T14:28:36.518Z,10.87
2018-09-15T14:31:04.869Z,11.83
2018-09-15T14:33:33.223Z,11.20
2018-09-15T14:36:01.501Z,6.97
2018-09-15T14:38:29.827Z,5.53
2018-09-15T14:40:58.169Z,9.13
2018-09-15T14:43:26.487Z,17.60
2018-09-15T14:45:54.864Z,12.63
2018-09-15T14:48:23.293Z,11.50
2018-09-15T14:50:51.564Z,6.47
2018-09-15T14:53:19.861Z,10.27
2018-09-15T14:55:50.206Z,6.13
2018-09-15T14:58:18.536Z,4.03
2018-09-15T15:00:46.909Z,7.50
2018-09-15T15:03:15.781Z,8.03
2018-09-15T15:05:44.487Z,3.87
2018-09-15T15:08:12.914Z,7.73
2018-09-15T15:10:41.232Z,4.63
2018-09-15T15:13:09.516Z,5.27
2018-09-15T15:15:37.831Z,7.33
2018-09-15T15:18:06.197Z,5.90
2018-09-15T15:20:34.523Z,4.53
2018-09-15T15:23:03.722Z,6.43
2018-09-15T15:25:32.036Z,7.53
2018-09-15T15:28:00.308Z,5.13
2018-09-15T15:30:28.624Z,7.30
2018-09-15T15:32:56.931Z,9.03
2018-09-15T15:35:25.349Z,4.83
2018-09-15T15:37:53.613Z,8.60
2018-09-15T15:40:21.927Z,5.60
2018-09-15T15:42:50.234Z,6.30
2018-09-15T15:45:18.724Z,4.97
2018-09-15T15:47:47.015Z,5.23
2018-09-15T15:50:15.301Z,4.77
2018-09-15T15:52:43.602Z,7.07
2018-09-15T15:55:12.046Z,5.00
2018-09-15T15:57:40.352Z,3.77
2018-09-15T16:00:08.731Z,5.50
2018-09-15T16:02:37.034Z,6.20
2018-09-15T16:05:05.384Z,6.30
2018-09-15T16:07:33.709Z,3.03
2018-09-15T16:10:02.029Z,4.00
2018-09-15T16:12:30.341Z,3.97
2018-09-15T16:14:58.627Z,6.33
2018-09-15T16:17:26.932Z,3.00
2018-09-15T16:19:55.243Z,5.67
2018-09-15T16:22:23.553Z,5.57
2018-09-15T16:24:51.890Z,3.77
2018-09-15T16:27:20.212Z,3.80
2018-09-15T16:29:48.503Z,8.10
2018-09-15T16:32:16.800Z,5.93
2018-09-15T16:34:45.126Z,4.00
2018-09-15T16:37:14.430Z,6.67
2018-09-15T16:39:42.709Z,10.50
2018-09-15T16:42:11.173Z,7.07
2018-09-15T16:44:39.486Z,5.50
2018-09-15T16:47:07.836Z,4.80
2018-09-15T16:49:36.280Z,5.90
2018-09-15T16:52:04.693Z,5.30
2018-09-15T16:54:33.127Z,4.60
2018-09-15T16:57:01.514Z,5.07
2018-09-15T16:59:29.739Z,7.10
2018-09-15T17:01:58.071Z,5.63
2018-09-15T17:04:26.342Z,5.87
2018-09-15T17:06:54.665Z,6.10
2018-09-15T17:09:23.101Z,3.70
2018-09-15T17:11:51.402Z,5.57
2018-09-15T17:14:19.681Z,2.63
2018-09-15T17:16:48.199Z,9.87
2018-09-15T17:19:16.278Z,5.23
2018-09-15T17:21:44.583Z,5.47
2018-09-15T17:24:12.900Z,4.93
2018-09-15T17:26:41.326Z,6.53
2018-09-15T17:29:09.624Z,5.43
2018-09-15T17:31:37.960Z,5.63
2018-09-15T17:34:06.309Z,4.40
2018-09-15T17:36:34.625Z,6.73
2018-09-15T17:39:02.973Z,5.43
2018-09-15T17:41:31.278Z,6.00
2018-09-15T17:43:59.560Z,6.47
2018-09-15T17:46:27.900Z,6.07
2018-09-15T17:48:56.145Z,5.97
2018-09-15T17:51:24.551Z,7.37
2018-09-15T17:53:52.898Z,5.87
2018-09-15T17:56:21.196Z,9.83
2018-09-15T17:58:49.503Z,7.07
2018-09-15T18:01:17.816Z,6.33
2018-09-15T18:03:46.142Z,6.80
2018-09-15T18:06:14.419Z,4.17
2018-09-15T18:08:42.720Z,5.70
2018-09-15T18:11:11.177Z,3.67
2018-09-15T18:13:39.476Z,4.73
2018-09-15T18:16:07.806Z,3.70
2018-09-15T18:18:36.136Z,4.80
2018-09-15T18:21:04.468Z,5.30
2018-09-15T18:23:32.790Z,3.63
2018-09-15T18:26:01.241Z,6.07
2018-09-15T18:28:29.530Z,6.30
2018-09-15T18:30:57.827Z,3.30
2018-09-15T18:33:26.116Z,3.23
2018-09-15T18:35:54.521Z,5.17
2018-09-15T18:38:22.880Z,10.27
2018-09-15T18:40:51.204Z,4.53
2018-09-15T18:43:19.543Z,5.63
2018-09-15T18:45:47.857Z,8.43
2018-09-15T18:48:16.198Z,5.63
2018-09-15T18:50:44.508Z,5.43
2018-09-15T18:53:12.879Z,10.00
2018-09-15T18:55:41.176Z,9.10
2018-09-15T18:58:09.498Z,8.57
2018-09-15T19:00:37.770Z,4.70
2018-09-15T19:03:06.228Z,8.07
2018-09-15T19:05:34.594Z,6.97
2018-09-15T19:08:02.928Z,7.67
2018-09-15T19:10:31.209Z,6.23
2018-09-15T19:12:59.526Z,5.33
2018-09-15T19:15:27.800Z,4.50
2018-09-15T19:17:56.125Z,6.13
2018-09-15T19:20:24.518Z,8.30
2018-09-15T19:22:52.806Z,8.10
2018-09-15T19:25:21.106Z,5.33
2018-09-15T19:27:49.427Z,6.97
2018-09-15T19:30:17.750Z,4.90
2018-09-15T19:32:46.356Z,7.83
2018-09-15T19:35:14.592Z,5.70
2018-09-15T19:37:42.908Z,10.47
2018-09-15T19:40:11.260Z,5.27
2018-09-15T19:42:39.603Z,6.63
2018-09-15T19:45:22.209Z,8.00
2018-09-15T19:47:50.620Z,6.03
2018-09-15T19:50:22.392Z,6.77
2018-09-15T19:52:54.864Z,7.23
2018-09-15T19:55:24.292Z,10.27
2018-09-15T19:57:56.528Z,7.33
2018-09-15T20:00:29.772Z,5.60
2018-09-15T20:03:04.535Z,8.53
2018-09-15T20:05:32.971Z,7.10
2018-09-15T20:08:03.329Z,8.40
2018-09-15T20:10:31.711Z,6.43
2018-09-15T20:13:04.063Z,9.23
2018-09-15T20:15:31.220Z,8.67
2018-09-15T20:18:05.715Z,10.80
2018-09-15T20:20:32.955Z,8.67
2018-09-15T20:23:01.281Z,9.30
2018-09-15T20:25:29.687Z,7.00
2018-09-15T20:27:58.078Z,8.30
2018-09-15T20:30:33.066Z,8.57
2018-09-15T20:33:03.606Z,10.07
2018-09-15T20:35:32.830Z,9.07
2018-09-15T20:38:02.822Z,11.87
2018-09-15T20:40:32.258Z,11.93
2018-09-15T20:43:02.991Z,11.17
2018-09-15T20:48:22.908Z,10.60
2018-09-15T20:50:57.939Z,13.47
2018-09-15T20:53:27.334Z,12.67
2018-09-15T20:55:57.655Z,11.50
2018-09-15T20:58:26.057Z,9.57
2018-09-15T21:01:06.592Z,11.60
2018-09-15T21:03:47.063Z,10.23
2018-09-15T21:06:16.427Z,7.17
2018-09-15T21:08:44.823Z,8.13
2018-09-15T21:11:13.233Z,9.07
2018-09-15T21:13:41.635Z,10.83
2018-09-15T21:16:12.562Z,10.23
2018-09-15T21:18:42.991Z,9.67
2018-09-15T21:21:16.775Z,8.47
2018-09-15T21:23:46.173Z,10.60
2018-09-15T21:26:16.467Z,11.83
2018-09-15T21:28:46.822Z,12.00
2018-09-15T21:31:17.116Z,8.33
2018-09-15T21:33:51.871Z,10.17
2018-09-15T21:36:22.704Z,8.07
2018-09-15T21:38:52.094Z,9.50
2018-09-15T21:41:24.040Z,13.83
2018-09-15T21:43:57.340Z,7.57
2018-09-15T21:46:26.634Z,9.87
2018-09-15T21:49:01.092Z,9.23
2018-09-15T21:51:35.392Z,11.23
2018-09-15T21:54:03.866Z,12.30
2018-09-15T21:56:33.298Z,14.60
2018-09-15T21:59:01.650Z,12.63
2018-09-15T22:01:30.307Z,12.23
2018-09-15T22:04:04.063Z,9.90
2018-09-15T22:06:32.375Z,9.63
2018-09-15T22:09:00.684Z,7.07
2018-09-15T22:11:29.060Z,7.20
2018-09-15T22:13:57.539Z,7.87
2018-09-15T22:16:25.835Z,9.93
2018-09-15T22:18:54.165Z,10.50
2018-09-15T22:21:26.905Z,7.73
2018-09-15T22:24:00.694Z,7.27
2018-09-15T22:26:33.731Z,7.37
2018-09-15T22:29:02.705Z,7.40
2018-09-15T22:31:31.227Z,8.00
2018-09-15T22:34:00.729Z,7.80
2018-09-15T22:36:29.096Z,11.27
2018-09-15T22:38:57.602Z,7.13
2018-09-15T22:41:25.900Z,8.93
2018-09-15T22:43:54.428Z,11.03
2018-09-15T22:46:22.901Z,8.47
2018-09-15T22:48:51.239Z,9.63
2018-09-15T22:51:19.593Z,7.80
2018-09-15T22:53:48.228Z,8.43
2018-09-15T22:56:16.649Z,7.60
2018-09-15T22:58:45.111Z,8.27
2018-09-15T23:01:13.525Z,10.40
2018-09-15T23:03:41.876Z,8.23
2018-09-15T23:06:11.215Z,6.27
2018-09-15T23:08:39.646Z,12.33
2018-09-15T23:11:08.538Z,6.93
2018-09-15T23:13:37.090Z,9.97
2018-09-15T23:16:05.437Z,7.13
2018-09-15T23:18:33.737Z,8.20
2018-09-15T23:21:02.197Z,6.27
2018-09-15T23:23:30.508Z,8.70
2018-09-15T23:25:58.882Z,7.30
2018-09-15T23:28:27.196Z,7.07
2018-09-15T23:30:55.573Z,9.47
2018-09-15T23:33:23.940Z,8.57
2018-09-15T23:35:52.329Z,7.20
2018-09-15T23:38:20.708Z,11.03
2018-09-15T23:40:48.985Z,7.37
2018-09-15T23:43:17.402Z,9.30
2018-09-15T23:45:45.728Z,6.43
2018-09-15T23:48:14.124Z,6.20
2018-09-15T23:50:42.567Z,9.07
2018-09-15T23:53:11.000Z,10.27
2018-09-15T23:55:39.323Z,5.93
2018-09-15T23:58:08.019Z,11.33
